Time;durP1;ratioP1;P1;durP2;ratioP2;P2;SDS_P1;SDS_P2;PMS_P1;PMS_P2;Temp;Humidity;BMP_temperature;BMP_pressure;BME280_temperature;BME280_humidity;BME280_pressure;Samples;Min_cycle;Max_cycle;Signal;HPM_P1;HPM_P2
2022/03/04 00:01:47;;;;;;;9.52;3.83;;;;;;;1.21;48.46;98905.50;5000148;28;20041;-53
2022/03/04 00:04:15;;;;;;;9.45;4.20;;;;;;;1.16;48.43;98897.84;5016014;28;20452;-52
2022/03/04 00:06:41;;;;;;;8.07;3.88;;;;;;;1.15;48.45;98908.13;5032453;28;20064;-48
2022/03/04 00:09:07;;;;;;;11.93;4.20;;;;;;;1.12;48.47;98909.00;5032463;28;20041;-50
2022/03/04 00:11:33;;;;;;;10.50;3.90;;;;;;;1.09;48.79;98911.59;5033939;28;20080;-50
2022/03/04 00:13:58;;;;;;;10.73;3.50;;;;;;;1.04;48.91;98913.34;5032656;28;20041;-50
2022/03/04 00:16:24;;;;;;;10.27;4.20;;;;;;;0.85;49.61;98878.53;5032315;28;20041;-50
2022/03/04 00:19:06;;;;;;;6.50;3.88;;;;;;;0.98;49.33;98910.84;5032903;28;20580;-49
2022/03/04 00:21:39;;;;;;;12.38;3.88;;;;;;;0.96;49.58;98914.25;5032192;28;20095;-51
2022/03/04 00:24:06;;;;;;;10.32;4.20;;;;;;;0.94;49.69;98914.28;5032229;28;20712;-53
2022/03/04 00:26:32;;;;;;;8.57;3.95;;;;;;;0.94;49.64;98918.56;5033494;28;20045;-52
2022/03/04 00:28:58;;;;;;;8.60;4.05;;;;;;;0.88;49.87;98921.16;5033124;28;20452;-50
2022/03/04 00:31:24;;;;;;;10.07;3.78;;;;;;;0.90;49.74;98927.09;5015340;28;20045;-50
2022/03/04 00:33:51;;;;;;;6.80;3.47;;;;;;;0.87;50.30;98933.09;5032747;28;20041;-50
2022/03/04 00:36:22;;;;;;;9.50;4.07;;;;;;;0.66;50.38;98900.00;5032802;28;20041;-49
2022/03/04 00:38:49;;;;;;;6.55;3.40;;;;;;;0.82;50.57;98925.47;5033224;28;20037;-49
2022/03/04 00:41:19;;;;;;;8.98;3.67;;;;;;;0.80;50.20;98932.28;5032528;28;20048;-47
2022/03/04 00:43:46;;;;;;;8.73;4.07;;;;;;;0.78;50.53;98934.03;5033238;28;20048;-47
2022/03/04 00:46:13;;;;;;;10.07;3.60;;;;;;;0.73;50.62;98925.50;5032059;28;20052;-48
2022/03/04 00:48:39;;;;;;;8.43;3.83;;;;;;;0.70;51.02;98924.69;5032859;28;20132;-49
2022/03/04 00:51:05;;;;;;;9.05;4.40;;;;;;;0.66;51.23;98923.88;5031125;28;20042;-50
2022/03/04 00:53:31;;;;;;;7.70;3.80;;;;;;;0.63;51.17;98930.72;5015493;28;20087;-50
2022/03/04 00:55:57;;;;;;;9.13;3.95;;;;;;;0.61;51.29;98935.00;5047805;28;20107;-51
2022/03/04 00:58:23;;;;;;;9.25;4.03;;;;;;;0.60;51.55;98933.28;5032864;28;20424;-50
2022/03/04 01:00:49;;;;;;;9.48;4.47;;;;;;;0.59;51.59;98929.03;5032562;28;20042;-49
2022/03/04 01:03:15;;;;;;;13.98;3.85;;;;;;;0.55;51.83;98922.25;5032763;28;20048;-51
2022/03/04 01:05:41;;;;;;;9.90;4.00;;;;;;;0.53;51.96;98924.81;5032120;28;20540;-51
2022/03/04 01:08:07;;;;;;;11.90;4.65;;;;;;;0.51;51.83;98929.09;5031481;28;20037;-51
2022/03/04 01:10:33;;;;;;;9.35;4.18;;;;;;;0.49;52.30;98929.94;5033008;28;20068;-51
2022/03/04 01:12:59;;;;;;;10.70;4.55;;;;;;;0.35;52.21;98909.59;5032776;28;20136;-49
2022/03/04 01:15:25;;;;;;;9.75;4.25;;;;;;;0.40;52.73;98931.72;5031930;28;20072;-50
2022/03/04 01:17:51;;;;;;;9.13;4.35;;;;;;;0.39;52.96;98932.56;5032594;28;20504;-50
2022/03/04 01:20:17;;;;;;;11.00;4.50;;;;;;;0.39;53.01;98937.69;5031950;28;20063;-50
2022/03/04 01:22:43;;;;;;;14.68;4.90;;;;;;;0.33;53.10;98937.72;5032513;28;20037;-49
2022/03/04 01:25:09;;;;;;;9.20;4.65;;;;;;;0.34;53.09;98930.88;5032344;28;20068;-50
2022/03/04 01:27:35;;;;;;;10.60;4.47;;;;;;;0.30;53.37;98939.44;5031159;28;20056;-47
2022/03/04 01:30:01;;;;;;;14.50;4.88;;;;;;;0.27;53.59;98936.88;5032272;28;20037;-49
2022/03/04 01:32:26;;;;;;;16.05;5.38;;;;;;;0.22;53.66;98929.25;5031012;28;20570;-48
2022/03/04 01:34:52;;;;;;;15.45;5.45;;;;;;;0.19;53.85;98923.31;5030467;28;20080;-48
2022/03/04 01:37:18;;;;;;;16.13;5.45;;;;;;;0.05;54.22;98907.22;5032316;28;20052;-50
2022/03/04 01:39:43;;;;;;;12.27;5.43;;;;;;;0.01;54.32;98906.34;5032038;28;20128;-49
2022/03/04 01:42:09;;;;;;;13.73;5.68;;;;;;;0.10;54.70;98924.22;5032129;28;20195;-50
2022/03/04 01:44:35;;;;;;;12.93;5.65;;;;;;;0.08;54.73;98928.47;5032054;28;20060;-48
2022/03/04 01:47:01;;;;;;;10.20;4.75;;;;;;;0.08;54.96;98915.69;5031845;28;20041;-47
2022/03/04 01:49:27;;;;;;;12.13;5.57;;;;;;;-0.02;54.97;98894.47;5030233;28;20069;-53
2022/03/04 01:51:53;;;;;;;15.85;5.68;;;;;;;0.07;55.50;98913.13;5031359;28;20130;-50
2022/03/04 01:54:19;;;;;;;10.27;4.82;;;;;;;0.03;55.24;98914.03;5031688;28;20110;-52
2022/03/04 01:56:44;;;;;;;9.27;5.65;;;;;;;-0.02;55.73;98916.59;5031701;28;20033;-50
2022/03/04 01:59:10;;;;;;;13.75;5.50;;;;;;;-0.03;55.72;98917.44;5031780;28;20069;-49
2022/03/04 02:01:36;;;;;;;10.52;4.78;;;;;;;-0.05;56.20;98914.03;5029369;28;20045;-49
2022/03/04 02:04:02;;;;;;;9.23;4.90;;;;;;;-0.08;55.96;98904.69;5030819;28;20049;-51
2022/03/04 02:06:28;;;;;;;10.35;5.43;;;;;;;-0.18;56.24;98880.06;5030876;28;20088;-50
2022/03/04 02:08:54;;;;;;;12.00;5.00;;;;;;;-0.17;56.25;98884.31;5046823;28;20501;-52
2022/03/04 02:11:19;;;;;;;14.32;5.50;;;;;;;-0.08;56.08;98903.84;5028901;28;20056;-52
2022/03/04 02:13:45;;;;;;;13.10;5.45;;;;;;;-0.14;56.40;98886.00;5031592;28;20056;-51
2022/03/04 02:16:15;;;;;;;11.00;5.47;;;;;;;-0.12;56.73;98895.34;5013526;28;20377;-49
2022/03/04 02:18:41;;;;;;;10.65;5.03;;;;;;;-0.16;56.29;98888.53;5029787;28;20041;-49
2022/03/04 02:21:08;;;;;;;10.65;5.75;;;;;;;-0.17;56.69;98886.88;5030892;28;20038;-52
2022/03/04 02:23:33;;;;;;;17.35;6.18;;;;;;;-0.23;56.60;98884.34;5029753;28;20034;-48
2022/03/04 02:25:59;;;;;;;13.80;5.78;;;;;;;-0.25;57.16;98891.13;5030197;28;20052;-48
2022/03/04 02:28:25;;;;;;;16.55;6.07;;;;;;;-0.27;56.90;98886.91;5031267;28;20460;-50
2022/03/04 02:30:50;;;;;;;15.23;5.90;;;;;;;-0.29;57.46;98888.59;5031419;28;20132;-51
2022/03/04 02:33:16;;;;;;;11.73;5.95;;;;;;;-0.33;57.06;98884.38;5046072;28;20045;-49
2022/03/04 02:35:42;;;;;;;14.20;6.47;;;;;;;-0.37;57.63;98886.09;5030852;28;20407;-52
2022/03/04 02:38:08;;;;;;;11.77;5.63;;;;;;;-0.39;57.43;98872.47;5030752;28;20049;-50
2022/03/04 02:40:34;;;;;;;13.82;6.28;;;;;;;-0.39;57.63;98884.38;5031161;28;20412;-53
2022/03/04 02:43:00;;;;;;;11.85;5.43;;;;;;;-0.42;57.61;98886.09;5030867;28;20090;-50
2022/03/04 02:45:26;;;;;;;11.23;6.10;;;;;;;-0.44;58.13;98880.16;5029779;28;20697;-52
2022/03/04 02:47:52;;;;;;;13.10;5.30;;;;;;;-0.45;58.01;98880.16;5031086;28;20047;-49
2022/03/04 02:50:18;;;;;;;11.40;5.82;;;;;;;-0.47;58.14;98881.84;5030489;28;20429;-52
2022/03/04 02:52:44;;;;;;;15.20;6.53;;;;;;;-0.49;58.50;98876.78;5030464;28;20051;-50
2022/03/04 02:55:11;;;;;;;12.70;5.45;;;;;;;-0.52;58.49;98879.31;5030311;28;20034;-49
2022/03/04 02:57:39;;;;;;;14.77;5.95;;;;;;;-0.55;58.42;98879.34;5030529;28;20082;-50
2022/03/04 03:00:05;;;;;;;17.08;6.03;;;;;;;-0.57;58.78;98877.63;5030646;28;20531;-50
2022/03/04 03:02:31;;;;;;;15.55;6.28;;;;;;;-0.58;58.81;98887.03;5030599;28;20139;-50
2022/03/04 03:04:57;;;;;;;12.85;5.90;;;;;;;-0.60;59.30;98893.81;5030458;28;20513;-51
2022/03/04 03:07:23;;;;;;;16.13;6.60;;;;;;;-0.76;59.09;98866.63;5029068;28;20076;-50
2022/03/04 03:09:49;;;;;;;15.98;6.40;;;;;;;-0.64;59.17;98893.84;5012962;28;20057;-51
2022/03/04 03:12:15;;;;;;;14.60;6.32;;;;;;;-0.66;59.40;98900.63;5010876;28;20513;-49
2022/03/04 03:14:40;;;;;;;15.10;7.32;;;;;;;-0.66;59.45;98893.81;5013585;28;20045;-53
2022/03/04 03:17:06;;;;;;;14.80;7.32;;;;;;;-0.81;59.69;98878.56;5016946;28;20535;-57
2022/03/04 03:19:32;;;;;;;19.23;7.68;;;;;;;-0.80;59.80;98887.91;5034396;28;20593;-49
2022/03/04 03:21:57;;;;;;;17.17;6.85;;;;;;;-0.74;59.73;98903.22;5032959;28;20525;-48
2022/03/04 03:24:23;;;;;;;14.50;7.28;;;;;;;-0.74;60.19;98910.88;5020638;28;20469;-50
2022/03/04 03:26:49;;;;;;;14.77;6.65;;;;;;;-0.77;60.20;98912.56;5014352;28;20128;-51
2022/03/04 03:29:15;;;;;;;13.68;6.80;;;;;;;-0.75;60.36;98918.53;5014223;28;20122;-50
2022/03/04 03:31:40;;;;;;;13.70;5.88;;;;;;;-0.73;60.37;98919.38;5015309;28;20045;-52
2022/03/04 03:34:06;;;;;;;17.65;7.43;;;;;;;-0.72;60.75;98923.59;5012797;28;20107;-49
2022/03/04 03:36:32;;;;;;;16.85;8.10;;;;;;;-0.67;60.42;98932.09;5014313;28;20049;-48
2022/03/04 03:38:57;;;;;;;17.85;7.18;;;;;;;-0.59;60.35;98926.16;5028646;28;20037;-47
2022/03/04 03:41:23;;;;;;;15.77;7.22;;;;;;;-0.51;60.36;98921.00;5014168;28;20060;-48
2022/03/04 03:43:49;;;;;;;14.68;7.70;;;;;;;-0.44;60.24;98931.22;5013852;28;20076;-49
2022/03/04 03:46:14;;;;;;;19.00;7.43;;;;;;;-0.37;60.31;98933.75;5014021;28;20076;-54
2022/03/04 03:48:40;;;;;;;17.02;7.32;;;;;;;-0.30;59.96;98935.41;5014107;28;20077;-50
2022/03/04 03:51:07;;;;;;;12.88;7.45;;;;;;;-0.28;59.88;98944.78;5012649;28;20056;-53
2022/03/04 03:53:37;;;;;;;19.65;8.05;;;;;;;-0.25;60.03;98943.91;4997119;28;20460;-53
2022/03/04 03:56:03;;;;;;;19.35;7.47;;;;;;;-0.23;59.80;98949.88;4963901;28;20053;-52
2022/03/04 03:58:29;;;;;;;15.07;7.25;;;;;;;-0.16;59.47;98951.56;5030192;28;20033;-50
2022/03/04 04:00:55;;;;;;;17.70;8.38;;;;;;;-0.16;59.82;98942.19;5032095;28;20497;-51
2022/03/04 04:03:21;;;;;;;16.10;7.10;;;;;;;-0.10;59.82;98949.81;5032507;28;20033;-51
2022/03/04 04:05:46;;;;;;;17.60;7.32;;;;;;;-0.06;59.78;98943.03;5032977;28;20072;-49
2022/03/04 04:08:12;;;;;;;17.35;7.63;;;;;;;-0.03;59.69;98948.09;5048460;28;20037;-51
2022/03/04 04:10:38;;;;;;;19.92;8.10;;;;;;;-0.05;59.72;98948.09;5032411;28;20037;-50
2022/03/04 04:13:04;;;;;;;17.75;7.43;;;;;;;0.03;59.90;98948.09;5032918;28;20037;-50
2022/03/04 04:15:29;;;;;;;14.30;7.32;;;;;;;-0.02;59.56;98945.56;5033319;28;20457;-51
2022/03/04 04:17:55;;;;;;;19.27;8.43;;;;;;;0.08;59.82;98960.84;5014961;28;20083;-48
2022/03/04 04:20:21;;;;;;;17.25;8.00;;;;;;;0.10;59.61;98956.59;5048074;28;20045;-49
2022/03/04 04:22:46;;;;;;;17.40;8.55;;;;;;;0.13;59.18;98959.13;5048360;28;20087;-51
2022/03/04 04:25:12;;;;;;;16.10;8.98;;;;;;;0.11;59.39;98964.22;5030388;28;20049;-51
2022/03/04 04:27:38;;;;;;;15.98;7.93;;;;;;;0.12;59.62;98959.97;5032915;28;20037;-50
2022/03/04 04:30:04;;;;;;;19.15;8.27;;;;;;;0.10;59.30;98962.53;5032813;28;20041;-52
2022/03/04 04:32:30;;;;;;;18.25;7.88;;;;;;;-0.03;59.56;98930.22;5032423;28;20041;-52
2022/03/04 04:34:56;;;;;;;19.75;8.50;;;;;;;0.10;59.32;98948.91;5032833;28;20037;-50
2022/03/04 04:37:21;;;;;;;18.00;8.77;;;;;;;0.19;59.30;98967.59;5031029;28;20053;-53
2022/03/04 04:39:47;;;;;;;18.48;8.63;;;;;;;0.17;59.44;98978.69;5032895;28;20401;-49
2022/03/04 04:42:13;;;;;;;19.67;8.07;;;;;;;0.16;59.44;98980.38;5031507;28;20033;-54
2022/03/04 04:44:38;;;;;;;15.27;7.38;;;;;;;0.18;59.68;98980.38;5027208;28;20380;-51
2022/03/04 04:47:06;;;;;;;17.50;8.40;;;;;;;0.20;59.36;98987.22;5031972;28;20042;-52
2022/03/04 04:49:36;;;;;;;17.15;8.40;;;;;;;0.20;59.18;98989.75;5032292;28;20084;-49
2022/03/04 04:52:04;;;;;;;16.70;7.28;;;;;;;0.21;59.54;98988.88;5031711;28;20119;-53
2022/03/04 04:54:29;;;;;;;18.50;7.82;;;;;;;0.19;59.45;98972.72;5031536;28;20071;-49
2022/03/04 04:56:55;;;;;;;15.63;7.18;;;;;;;0.23;59.65;98981.22;5046831;28;20033;-48
2022/03/04 04:59:20;;;;;;;19.27;7.38;;;;;;;0.22;59.44;98980.38;5030607;28;20050;-48
2022/03/04 05:01:46;;;;;;;14.88;7.82;;;;;;;0.23;59.64;98982.06;5031691;28;20087;-50
2022/03/04 05:04:12;;;;;;;14.88;6.78;;;;;;;0.22;59.53;98977.81;5024691;28;20751;-49
2022/03/04 05:06:38;;;;;;;23.15;8.00;;;;;;;0.22;59.24;98974.41;5037606;28;20056;-49
2022/03/04 05:09:03;;;;;;;17.00;7.10;;;;;;;0.24;59.43;98976.09;5020764;28;20046;-50
2022/03/04 05:11:29;;;;;;;17.95;8.05;;;;;;;0.24;59.66;98988.03;5007994;28;20055;-47
2022/03/04 05:13:55;;;;;;;16.33;7.50;;;;;;;0.24;59.56;98977.81;5031001;28;20508;-49
2022/03/04 05:16:21;;;;;;;18.65;7.97;;;;;;;0.24;59.55;98986.31;5033472;28;20033;-49
2022/03/04 05:18:47;;;;;;;16.90;7.82;;;;;;;0.19;59.74;98989.75;5037909;28;20042;-51
2022/03/04 05:21:13;;;;;;;17.45;7.85;;;;;;;0.08;59.73;98981.28;5031367;28;20099;-51
2022/03/04 05:26:22;;;;;;;17.67;7.25;;;;;;;0.17;59.54;99002.53;5031569;28;20049;-49
2022/03/04 05:28:49;;;;;;;16.55;7.47;;;;;;;0.12;59.96;99006.81;5030258;28;20048;-51
2022/03/04 05:31:15;;;;;;;13.73;7.28;;;;;;;0.09;59.96;99018.75;5031485;28;20037;-50
2022/03/04 05:33:41;;;;;;;15.15;7.40;;;;;;;0.04;60.09;99018.78;5029244;28;20087;-46
2022/03/04 05:36:07;;;;;;;16.88;7.85;;;;;;;0.08;60.25;99019.59;5029855;28;20076;-54
2022/03/04 05:38:32;;;;;;;18.70;7.68;;;;;;;0.01;60.08;99013.66;5030866;28;20041;-47
2022/03/04 05:40:59;;;;;;;17.73;9.52;;;;;;;-0.01;60.23;99023.91;5031532;28;20072;-47
2022/03/04 05:43:24;;;;;;;24.63;10.13;;;;;;;0.00;60.35;99032.44;5029179;28;20033;-48
2022/03/04 05:45:51;;;;;;;15.98;7.53;;;;;;;-0.22;60.56;98995.00;5027879;28;20049;-55
2022/03/04 05:48:17;;;;;;;14.07;6.88;;;;;;;-0.09;60.59;99032.44;5066895;28;20040;-48
2022/03/04 05:50:43;;;;;;;16.67;7.55;;;;;;;-0.10;60.89;99038.38;5041354;28;20068;-54
2022/03/04 05:53:09;;;;;;;20.00;8.30;;;;;;;-0.19;60.80;99031.59;5043216;28;20037;-50
2022/03/04 05:55:35;;;;;;;18.25;8.35;;;;;;;-0.17;60.76;99042.69;5030276;28;20045;-42
2022/03/04 05:58:01;;;;;;;16.70;7.57;;;;;;;-0.21;60.89;99035.84;5030800;28;20040;-54
2022/03/04 06:00:27;;;;;;;16.85;7.97;;;;;;;-0.21;61.12;99032.47;5030378;28;20087;-47
2022/03/04 06:02:53;;;;;;;17.88;7.35;;;;;;;-0.30;61.37;99015.44;5013297;28;20045;-46
2022/03/04 06:05:21;;;;;;;17.30;6.85;;;;;;;-0.22;61.12;99038.44;5029299;28;20389;-45
2022/03/04 06:07:50;;;;;;;16.80;7.05;;;;;;;-0.37;61.22;99003.56;5031015;28;20037;-50
2022/03/04 06:10:15;;;;;;;13.63;7.13;;;;;;;-0.22;61.37;99026.50;5029630;28;20061;-47
2022/03/04 06:12:41;;;;;;;18.25;6.82;;;;;;;-0.22;61.43;99035.88;5030748;28;20586;-49
2022/03/04 06:15:08;;;;;;;15.18;6.38;;;;;;;-0.18;61.03;99035.00;5028328;28;20045;-48
2022/03/04 06:17:34;;;;;;;13.27;5.82;;;;;;;-0.24;61.32;99014.59;5030524;28;20045;-46
2022/03/04 06:20:00;;;;;;;16.77;5.85;;;;;;;-0.13;61.19;99033.28;5030941;28;20113;-47
2022/03/04 06:22:26;;;;;;;15.25;6.25;;;;;;;-0.16;61.07;99025.66;5027013;28;20046;-51
2022/03/04 06:24:52;;;;;;;12.15;6.05;;;;;;;-0.24;60.95;99012.88;5032598;28;20036;-47
2022/03/04 06:27:17;;;;;;;23.80;7.55;;;;;;;-0.14;60.96;99018.81;5019091;28;20037;-51
2022/03/04 06:29:43;;;;;;;15.60;7.13;;;;;;;-0.03;60.63;99023.03;5011669;28;20034;-46
2022/03/04 06:32:09;;;;;;;12.55;5.60;;;;;;;-0.02;60.50;99022.19;5027750;28;20099;-47
2022/03/04 06:34:35;;;;;;;16.00;7.25;;;;;;;0.00;60.72;99023.03;5030220;28;20041;-48
2022/03/04 06:37:01;;;;;;;16.52;7.60;;;;;;;0.07;60.51;99023.88;5029962;28;20436;-48
2022/03/04 06:39:26;;;;;;;12.00;5.65;;;;;;;0.11;60.17;99028.09;5030470;28;20103;-47
2022/03/04 06:41:52;;;;;;;14.65;6.45;;;;;;;0.15;60.19;99023.84;5028829;28;20037;-44
2022/03/04 06:44:18;;;;;;;19.17;6.40;;;;;;;0.11;60.15;99009.38;5042640;28;20050;-45
2022/03/04 06:46:44;;;;;;;15.77;6.38;;;;;;;0.23;59.89;99025.53;5011179;28;20083;-45
2022/03/04 06:49:10;;;;;;;20.23;6.00;;;;;;;0.30;60.16;99024.66;5042241;28;20038;-46
2022/03/04 06:51:39;;;;;;;15.60;5.82;;;;;;;0.31;60.25;99031.47;5010755;28;20640;-44
2022/03/04 06:54:05;;;;;;;25.08;7.22;;;;;;;0.32;60.00;99030.59;5011025;28;20465;-46
2022/03/04 06:56:31;;;;;;;15.23;7.38;;;;;;;0.35;59.75;99028.03;5040328;28;20061;-45
2022/03/04 06:58:57;;;;;;;12.65;6.50;;;;;;;0.47;59.40;99022.03;5030307;28;20351;-47
2022/03/04 07:01:23;;;;;;;13.55;5.90;;;;;;;0.47;59.22;99023.72;5032675;28;20445;-45
2022/03/04 07:03:49;;;;;;;14.52;6.13;;;;;;;0.57;59.41;99030.50;5054605;28;20049;-44
2022/03/04 07:06:16;;;;;;;13.35;5.78;;;;;;;0.54;59.16;99025.38;5026599;28;20061;-45
2022/03/04 07:08:42;;;;;;;12.57;5.93;;;;;;;0.64;59.07;99037.25;5037893;28;20033;-45
2022/03/04 07:11:08;;;;;;;16.90;6.32;;;;;;;0.67;59.18;99042.38;5030611;28;20060;-50
2022/03/04 07:13:34;;;;;;;12.75;6.20;;;;;;;0.75;58.52;99043.19;5030357;28;20041;-50
2022/03/04 07:16:02;;;;;;;12.70;4.82;;;;;;;0.82;58.61;99045.72;5036887;28;20041;-46
2022/03/04 07:18:31;;;;;;;11.15;5.85;;;;;;;0.87;58.33;99035.44;5042323;28;20040;-48
2022/03/04 07:20:59;;;;;;;13.43;5.85;;;;;;;0.85;57.95;99012.41;5033626;28;20037;-48
2022/03/04 07:23:26;;;;;;;;;;;;;;;1.09;57.84;99041.28;5030104;28;20084;-46
2022/03/04 07:25:52;;;;;;;9.65;4.55;;;;;;;1.13;57.71;99038.69;5029369;28;20609;-43
2022/03/04 07:28:18;;;;;;;13.25;4.90;;;;;;;1.17;57.05;99037.78;5029394;28;20065;-45
2022/03/04 07:30:44;;;;;;;10.75;5.28;;;;;;;1.25;57.10;99033.47;5029740;28;20128;-45
2022/03/04 07:33:10;;;;;;;10.02;5.10;;;;;;;1.20;57.05;99021.56;5028015;28;20056;-49
2022/03/04 07:35:39;;;;;;;13.05;5.88;;;;;;;1.36;56.90;99038.50;5029316;28;20041;-45
2022/03/04 07:38:05;;;;;;;11.90;4.88;;;;;;;1.40;56.92;99047.03;5029009;28;20049;-45
2022/03/04 07:40:30;;;;;;;10.10;4.70;;;;;;;1.28;56.23;99020.66;5029088;28;20055;-46
2022/03/04 07:42:58;;;;;;;9.32;4.60;;;;;;;1.49;56.06;99044.38;5030241;28;20090;-44
2022/03/04 07:45:23;;;;;;;15.80;5.85;;;;;;;1.54;56.15;99042.63;5012492;28;20045;-46
2022/03/04 07:47:49;;;;;;;12.40;5.15;;;;;;;1.59;56.03;99039.16;5029846;28;20041;-43
2022/03/04 07:50:15;;;;;;;11.27;4.65;;;;;;;1.62;55.83;99038.31;5029752;28;20163;-43
2022/03/04 07:52:42;;;;;;;22.58;6.22;;;;;;;1.63;55.79;99045.09;5028816;28;20046;-44
2022/03/04 07:55:11;;;;;;;14.23;5.90;;;;;;;1.71;55.41;99045.91;5029120;28;20067;-44
2022/03/04 07:57:37;;;;;;;10.48;4.90;;;;;;;1.83;55.61;99053.47;5029103;28;20111;-43
2022/03/04 08:00:05;;;;;;;10.23;4.28;;;;;;;1.88;55.16;99054.28;5031538;28;20037;-47
2022/03/04 08:02:38;;;;;;;14.63;4.57;;;;;;;2.01;54.90;99049.88;5033930;28;20508;-45
2022/03/04 08:05:04;;;;;;;14.98;5.68;;;;;;;2.07;54.76;99057.50;5033845;28;20033;-45
2022/03/04 08:07:30;;;;;;;10.90;5.85;;;;;;;2.12;54.58;99061.72;5032334;28;20057;-44
2022/03/04 08:09:55;;;;;;;14.02;6.57;;;;;;;2.07;54.33;99042.97;5032274;28;20049;-43
2022/03/04 08:12:22;;;;;;;14.75;6.60;;;;;;;2.25;54.09;99074.41;5033421;28;20041;-43
2022/03/04 08:14:48;;;;;;;9.90;5.13;;;;;;;2.23;54.19;99071.84;5033413;28;20155;-46
2022/03/04 08:17:15;;;;;;;14.73;5.93;;;;;;;2.26;53.91;99064.13;5015570;28;20056;-44
2022/03/04 08:19:41;;;;;;;14.63;6.10;;;;;;;2.34;54.21;99067.47;5033482;28;20041;-45
2022/03/04 08:22:07;;;;;;;11.07;5.07;;;;;;;2.39;53.62;99069.97;5033220;28;20049;-43
2022/03/04 08:24:32;;;;;;;21.90;6.43;;;;;;;2.37;53.64;99046.03;5032625;28;20191;-45
2022/03/04 08:26:58;;;;;;;16.15;6.68;;;;;;;2.49;53.46;99062.16;5033002;28;20094;-44
2022/03/04 08:29:24;;;;;;;10.75;5.03;;;;;;;2.55;53.38;99061.22;5048358;28;20041;-47
2022/03/04 08:31:50;;;;;;;12.50;4.78;;;;;;;2.53;53.04;99053.53;5032570;28;20048;-44
2022/03/04 08:34:15;;;;;;;13.15;5.38;;;;;;;2.59;53.08;99039.78;5032577;28;20127;-44
2022/03/04 08:36:42;;;;;;;16.58;5.95;;;;;;;2.58;52.89;99038.09;5031487;28;20113;-44
2022/03/04 08:39:08;;;;;;;17.40;7.15;;;;;;;2.72;52.83;99059.28;5031624;28;20069;-44
2022/03/04 08:41:34;;;;;;;15.88;5.65;;;;;;;2.78;52.65;99054.06;5031397;28;20048;-44
2022/03/04 08:44:00;;;;;;;13.15;5.95;;;;;;;2.85;52.34;99060.84;5031208;28;20428;-44
2022/03/04 08:46:26;;;;;;;13.43;5.68;;;;;;;2.88;52.29;99058.22;5032313;28;20416;-44
2022/03/04 08:48:55;;;;;;;13.52;5.63;;;;;;;2.94;52.19;99063.28;5032109;28;20080;-45
2022/03/04 08:51:26;;;;;;;12.25;5.65;;;;;;;2.86;52.18;99044.56;5031647;28;20041;-43
2022/03/04 08:53:52;;;;;;;15.18;4.85;;;;;;;2.97;52.03;99060.69;5032716;28;20147;-45
2022/03/04 08:56:19;;;;;;;14.63;4.22;;;;;;;3.00;51.95;99057.19;5031082;28;20079;-44
2022/03/04 08:58:45;;;;;;;13.02;4.45;;;;;;;3.07;51.84;99052.84;5032621;28;20478;-44
2022/03/04 09:01:11;;;;;;;11.25;4.47;;;;;;;3.13;51.58;99053.59;5014260;28;20132;-44
2022/03/04 09:03:36;;;;;;;13.07;4.75;;;;;;;3.20;51.28;99054.34;5031422;28;20133;-45
2022/03/04 09:06:02;;;;;;;12.52;5.13;;;;;;;3.29;51.27;99051.66;5029476;28;20066;-43
2022/03/04 09:08:28;;;;;;;13.85;4.55;;;;;;;3.36;51.10;99050.66;5030989;28;20060;-44
2022/03/04 09:10:54;;;;;;;13.70;4.97;;;;;;;3.40;51.12;99050.59;5013683;28;20595;-44
2022/03/04 09:13:19;;;;;;;18.70;5.43;;;;;;;3.48;50.93;99042.78;5047458;28;20037;-44
2022/03/04 09:15:45;;;;;;;13.27;4.80;;;;;;;3.52;50.81;99048.69;5031925;28;20513;-46
2022/03/04 09:18:11;;;;;;;11.32;4.40;;;;;;;3.54;50.97;99046.97;5031722;28;20051;-44
2022/03/04 09:20:36;;;;;;;10.32;3.97;;;;;;;3.53;50.75;99050.41;5030353;28;20131;-44
2022/03/04 09:23:03;;;;;;;9.65;4.20;;;;;;;3.54;50.55;99040.13;5031339;28;20045;-44
2022/03/04 09:25:28;;;;;;;9.73;3.40;;;;;;;3.55;50.36;99058.94;5046314;28;20124;-43
2022/03/04 09:27:54;;;;;;;8.80;3.60;;;;;;;3.44;50.35;99048.00;5029414;28;20139;-45
2022/03/04 09:30:21;;;;;;;10.80;2.95;;;;;;;3.39;50.26;99056.63;5031336;28;20505;-47
2022/03/04 09:32:47;;;;;;;6.18;3.25;;;;;;;3.39;50.69;99048.06;5031656;28;20070;-44
2022/03/04 09:35:12;;;;;;;9.32;2.97;;;;;;;3.37;50.41;99050.66;5031637;28;20088;-43
2022/03/04 09:37:38;;;;;;;21.73;3.65;;;;;;;3.47;50.09;99056.50;5014363;28;20152;-44
2022/03/04 09:40:05;;;;;;;16.58;4.63;;;;;;;3.57;50.24;99047.75;5031712;28;20087;-44
2022/03/04 09:42:35;;;;;;;9.05;3.47;;;;;;;3.67;50.21;99054.44;5030289;28;20037;-44
2022/03/04 09:45:01;;;;;;;7.40;3.30;;;;;;;3.81;49.92;99051.66;5031748;28;20083;-44
2022/03/04 09:47:27;;;;;;;11.05;3.80;;;;;;;3.87;49.75;99053.28;5030348;28;20049;-44
2022/03/04 09:49:54;;;;;;;7.35;3.38;;;;;;;3.72;49.56;99026.09;5030350;28;20105;-43
2022/03/04 09:52:20;;;;;;;9.70;3.80;;;;;;;3.90;49.46;99054.06;5013639;28;20615;-42
2022/03/04 09:54:50;;;;;;;13.80;3.85;;;;;;;3.88;49.16;99037.78;5031545;28;20036;-44
2022/03/04 09:57:16;;;;;;;8.35;2.80;;;;;;;3.90;48.88;99040.34;5030247;28;20056;-45
2022/03/04 09:59:43;;;;;;;9.02;2.83;;;;;;;3.76;49.37;99020.88;5031308;28;20057;-45
2022/03/04 10:02:12;;;;;;;9.02;3.08;;;;;;;3.95;49.24;99035.97;5031084;28;20115;-43
2022/03/04 10:04:38;;;;;;;7.25;2.78;;;;;;;4.11;49.07;99039.97;5031382;28;20076;-44
2022/03/04 10:07:17;;;;;;;8.27;2.80;;;;;;;4.18;48.87;99020.97;5029536;28;20137;-44
2022/03/04 10:09:47;;;;;;;9.32;2.97;;;;;;;4.31;48.64;99032.69;5031064;28;20064;-43
2022/03/04 10:12:16;;;;;;;8.23;2.85;;;;;;;4.32;48.57;99030.97;5013118;28;20041;-43
2022/03/04 10:15:07;;;;;;;9.77;2.47;;;;;;;4.29;48.39;99034.47;5012874;28;20451;-45
2022/03/04 10:17:36;;;;;;;13.30;3.55;;;;;;;4.23;48.94;99032.03;5030637;28;20091;-45
2022/03/04 10:20:12;;;;;;;13.10;3.25;;;;;;;4.24;48.99;99031.13;5029513;28;20175;-44
2022/03/04 10:22:42;;;;;;;6.88;2.60;;;;;;;4.21;48.62;99036.34;5030373;28;20392;-42
2022/03/04 10:25:14;;;;;;;12.70;4.38;;;;;;;4.22;49.05;99033.75;5030371;28;20048;-45
2022/03/04 10:27:40;;;;;;;6.95;3.17;;;;;;;4.22;49.06;99036.31;5030564;28;20033;-43
2022/03/04 10:30:06;;;;;;;9.70;2.47;;;;;;;4.21;49.15;99034.63;5012669;28;20209;-44
2022/03/04 10:32:32;;;;;;;8.23;2.25;;;;;;;4.16;48.40;99010.69;5030577;28;20037;-45
2022/03/04 10:35:05;;;;;;;6.75;2.00;;;;;;;4.33;48.37;99036.09;5013178;28;20531;-44
2022/03/04 10:37:56;;;;;;;10.18;2.45;;;;;;;4.39;48.38;99024.84;5030503;28;20411;-45
2022/03/04 10:40:30;;;;;;;3.97;2.17;;;;;;;4.42;47.90;99032.50;5029197;28;20086;-45
2022/03/04 10:43:00;;;;;;;6.20;2.70;;;;;;;4.54;47.50;99027.09;5030526;28;20053;-44
2022/03/04 10:45:45;;;;;;;8.48;2.22;;;;;;;4.62;47.78;99028.63;5030335;28;20041;-44
2022/03/04 10:48:18;;;;;;;3.42;2.00;;;;;;;4.57;47.18;99017.59;5030351;28;20034;-44
2022/03/04 10:50:51;;;;;;;3.88;2.08;;;;;;;4.66;47.26;99025.09;5030481;28;20084;-44
2022/03/04 10:53:22;;;;;;;4.85;2.08;;;;;;;4.73;46.95;99019.84;5029095;28;20406;-43
2022/03/04 10:55:57;;;;;;;4.97;2.30;;;;;;;4.74;47.42;99024.09;5030509;28;20045;-44
2022/03/04 10:58:28;;;;;;;10.20;1.80;;;;;;;4.69;47.13;99019.06;5030220;28;20131;-43
2022/03/04 11:00:58;;;;;;;11.60;3.22;;;;;;;4.80;46.59;99021.41;5030107;28;20080;-44
2022/03/04 11:03:29;;;;;;;10.10;4.18;;;;;;;4.86;46.45;99011.81;5028256;28;20064;-43
2022/03/04 11:06:04;;;;;;;6.57;2.17;;;;;;;4.98;46.63;99015.81;5028814;28;20084;-46
2022/03/04 11:08:30;;;;;;;9.73;1.98;;;;;;;4.93;46.75;99021.09;5030143;28;20034;-44
2022/03/04 11:10:56;;;;;;;4.10;1.70;;;;;;;4.94;46.59;99014.22;5030006;28;20493;-44
2022/03/04 11:13:22;;;;;;;7.65;1.80;;;;;;;5.02;46.32;99009.75;5028572;28;20049;-46
2022/03/04 11:15:49;;;;;;;10.55;3.00;;;;;;;5.16;46.16;99009.41;5030253;28;20048;-43
2022/03/04 11:18:16;;;;;;;19.58;4.47;;;;;;;5.13;46.15;98981.97;5030087;28;20033;-42
2022/03/04 11:20:44;;;;;;;6.78;2.38;;;;;;;5.24;45.83;99007.50;5028948;28;20045;-45
2022/03/04 11:23:11;;;;;;;16.63;4.20;;;;;;;5.19;46.29;99002.44;5030217;28;20088;-45
2022/03/04 11:25:39;;;;;;;11.82;4.65;;;;;;;5.23;46.44;98996.38;5012737;28;20041;-45
2022/03/04 11:28:16;;;;;;;13.65;4.95;;;;;;;5.37;46.10;99006.34;5030291;28;20095;-46
2022/03/04 11:30:49;;;;;;;16.05;5.72;;;;;;;5.42;45.52;99007.06;5029359;28;20088;-45
2022/03/04 11:33:20;;;;;;;12.45;3.67;;;;;;;5.33;45.97;99003.00;5028569;28;20045;-43
2022/03/04 11:36:05;;;;;;;14.95;2.83;;;;;;;5.31;45.87;99007.31;5031911;28;20050;-45